createdAt,value
2018-05-03T00:00:09.724Z,13.5
2018-05-03T00:01:11.110Z,13.4
2018-05-03T00:02:12.455Z,13.3
2018-05-03T00:03:13.829Z,13.4
2018-05-03T00:04:15.220Z,13.3
2018-05-03T00:05:16.542Z,13.3
2018-05-03T00:06:17.844Z,13.3
2018-05-03T00:07:19.144Z,13.4
2018-05-03T00:08:20.518Z,13.4
2018-05-03T00:09:21.823Z,13.2
2018-05-03T00:10:23.130Z,13.1
2018-05-03T00:11:24.442Z,13.2
2018-05-03T00:12:25.776Z,13.1
2018-05-03T00:13:27.127Z,13.1
2018-05-03T00:14:28.417Z,13
2018-05-03T00:15:29.790Z,13.1
2018-05-03T00:16:31.175Z,12.9
2018-05-03T00:17:32.671Z,13
2018-05-03T00:18:34.135Z,13
2018-05-03T00:19:35.471Z,13
2018-05-03T00:20:37.067Z,13
2018-05-03T00:21:38.378Z,13
2018-05-03T00:22:39.702Z,13
2018-05-03T00:23:41.176Z,12.9
2018-05-03T00:24:42.505Z,12.9
2018-05-03T00:25:43.819Z,12.7
2018-05-03T00:26:45.187Z,12.7
2018-05-03T00:27:47.210Z,12.8
2018-05-03T00:28:48.585Z,12.8
2018-05-03T00:29:49.916Z,12.7
2018-05-03T00:30:51.288Z,12.6
2018-05-03T00:31:52.626Z,12.6
2018-05-03T00:32:53.950Z,12.7
2018-05-03T00:33:55.313Z,12.7
2018-05-03T00:34:56.634Z,12.7
2018-05-03T00:35:57.960Z,12.7
2018-05-03T00:36:59.277Z,12.6
2018-05-03T00:38:00.596Z,12.6
2018-05-03T00:39:04.967Z,12.7
2018-05-03T00:40:06.317Z,12.7
2018-05-03T00:41:07.668Z,12.6
2018-05-03T00:42:08.981Z,12.6
2018-05-03T00:43:10.308Z,12.6
2018-05-03T00:44:11.710Z,12.6
2018-05-03T00:45:13.039Z,12.5
2018-05-03T00:46:14.354Z,12.6
2018-05-03T00:47:15.684Z,12.6
2018-05-03T00:48:16.983Z,12.4
2018-05-03T00:49:18.345Z,12.3
2018-05-03T00:50:19.673Z,12.4
2018-05-03T00:51:20.979Z,12.5
2018-05-03T00:52:22.314Z,12.4
2018-05-03T00:53:23.646Z,12.4
2018-05-03T00:54:25.046Z,12.4
2018-05-03T00:55:26.367Z,12.4
2018-05-03T00:56:27.702Z,12.3
2018-05-03T00:57:29.016Z,12.3
2018-05-03T00:58:30.372Z,12.2
2018-05-03T00:59:31.761Z,12.2
2018-05-03T01:00:33.104Z,12.1
2018-05-03T01:01:34.443Z,12.1
2018-05-03T01:02:35.801Z,12.1
2018-05-03T01:03:37.094Z,12
2018-05-03T01:04:38.462Z,11.9
2018-05-03T01:05:39.781Z,12
2018-05-03T01:06:41.136Z,12
2018-05-03T01:07:42.551Z,12
2018-05-03T01:08:46.872Z,12.1
2018-05-03T01:09:48.280Z,11.9
2018-05-03T01:10:49.611Z,12
2018-05-03T01:11:50.945Z,12
2018-05-03T01:12:52.272Z,11.9
2018-05-03T01:13:53.579Z,11.9
2018-05-03T01:14:54.942Z,11.8
2018-05-03T01:15:56.259Z,11.9
2018-05-03T01:16:58.437Z,11.9
2018-05-03T01:18:01.377Z,12
2018-05-03T01:19:02.700Z,12
2018-05-03T01:20:04.134Z,11.9
2018-05-03T01:21:05.489Z,11.9
2018-05-03T01:22:09.218Z,11.9
2018-05-03T01:23:11.719Z,11.9
2018-05-03T01:24:13.032Z,11.7
2018-05-03T01:25:14.721Z,11.8
2018-05-03T01:26:16.139Z,11.8
2018-05-03T01:27:17.452Z,11.7
2018-05-03T01:28:18.822Z,11.7
2018-05-03T01:29:20.168Z,11.7
2018-05-03T01:30:21.592Z,11.8
2018-05-03T01:31:22.912Z,11.8
2018-05-03T01:32:24.225Z,11.8
2018-05-03T01:33:25.565Z,11.8
2018-05-03T01:34:26.900Z,11.7
2018-05-03T01:35:28.452Z,11.6
2018-05-03T01:36:29.818Z,11.7
2018-05-03T01:37:31.264Z,11.6
2018-05-03T01:38:32.595Z,11.6
2018-05-03T01:39:33.939Z,11.6
2018-05-03T01:40:35.339Z,11.8
2018-05-03T01:41:42.946Z,11.7
2018-05-03T01:42:46.007Z,11.7
2018-05-03T01:43:47.340Z,11.6
2018-05-03T01:44:48.718Z,11.5
2018-05-03T01:45:50.075Z,11.4
2018-05-03T01:46:51.390Z,11.4
2018-05-03T01:47:52.739Z,11.5
2018-05-03T01:48:54.075Z,11.5
2018-05-03T01:49:55.424Z,11.4
2018-05-03T01:50:56.819Z,11.5
2018-05-03T01:51:58.170Z,11.4
2018-05-03T01:52:59.510Z,11.4
2018-05-03T01:54:00.827Z,11.4
2018-05-03T01:55:02.211Z,11.5
2018-05-03T01:56:03.795Z,11.5
2018-05-03T01:57:05.148Z,11.6
2018-05-03T01:58:06.476Z,11.5
2018-05-03T01:59:07.812Z,11.5
2018-05-03T02:00:09.138Z,11.4
2018-05-03T02:01:10.557Z,11.4
2018-05-03T02:02:11.945Z,11.4
2018-05-03T02:03:13.253Z,11.5
2018-05-03T02:04:14.585Z,11.6
2018-05-03T02:05:16.032Z,11.4
2018-05-03T02:06:17.727Z,11.7
2018-05-03T02:07:19.143Z,11.6
2018-05-03T02:08:20.492Z,11.8
2018-05-03T02:09:21.857Z,11.7
2018-05-03T02:10:23.198Z,11.7
2018-05-03T02:11:24.559Z,11.7
2018-05-03T02:12:25.875Z,11.7
2018-05-03T02:13:27.191Z,11.8
2018-05-03T02:14:28.517Z,11.8
2018-05-03T02:15:29.820Z,11.8
2018-05-03T02:16:31.252Z,11.8
2018-05-03T02:17:32.580Z,11.9
2018-05-03T02:18:33.919Z,11.9
2018-05-03T02:19:35.260Z,11.9
2018-05-03T02:20:36.577Z,11.9
2018-05-03T02:21:41.337Z,11.8
2018-05-03T02:22:46.833Z,11.9
2018-05-03T02:23:48.157Z,11.9
2018-05-03T02:24:49.485Z,11.9
2018-05-03T02:25:50.805Z,11.8
2018-05-03T02:26:52.215Z,11.8
2018-05-03T02:27:53.597Z,11.8
2018-05-03T02:28:54.942Z,11.8
2018-05-03T02:29:56.264Z,11.8
2018-05-03T02:30:57.575Z,11.8
2018-05-03T02:31:58.949Z,11.9
2018-05-03T02:33:00.263Z,11.9
2018-05-03T02:34:01.655Z,11.9
2018-05-03T02:35:03.011Z,11.8
2018-05-03T02:36:04.372Z,11.7
2018-05-03T02:37:05.768Z,11.9
2018-05-03T02:38:07.087Z,11.9
2018-05-03T02:39:08.431Z,11.9
2018-05-03T02:40:09.777Z,11.9
2018-05-03T02:41:11.101Z,11.9
2018-05-03T02:42:12.776Z,11.9
2018-05-03T02:43:18.229Z,11.8
2018-05-03T02:44:19.681Z,12
2018-05-03T02:45:20.999Z,11.9
2018-05-03T02:46:23.465Z,11.8
2018-05-03T02:47:24.834Z,12
2018-05-03T02:48:26.155Z,12
2018-05-03T02:49:27.486Z,11.9
2018-05-03T02:50:28.834Z,12
2018-05-03T02:51:30.179Z,12
2018-05-03T02:52:33.720Z,11.9
2018-05-03T02:53:35.118Z,12.1
2018-05-03T02:54:36.455Z,12.1
2018-05-03T02:55:37.783Z,12
2018-05-03T02:56:39.125Z,12
2018-05-03T02:57:40.508Z,12
2018-05-03T02:58:41.824Z,12
2018-05-03T02:59:43.160Z,12.1
2018-05-03T03:00:44.477Z,12
2018-05-03T03:01:45.798Z,12
2018-05-03T03:02:47.212Z,12
2018-05-03T03:03:48.587Z,11.9
2018-05-03T03:04:49.930Z,11.9
2018-05-03T03:05:53.583Z,12
2018-05-03T03:06:55.239Z,12.1
2018-05-03T03:07:56.702Z,12
2018-05-03T03:08:58.002Z,12
2018-05-03T03:09:59.366Z,12.1
2018-05-03T03:11:00.715Z,12
2018-05-03T03:12:02.106Z,12
2018-05-03T03:13:03.720Z,12
2018-05-03T03:14:05.073Z,12
2018-05-03T03:15:06.406Z,12
2018-05-03T03:16:07.799Z,12
2018-05-03T03:17:09.159Z,12
2018-05-03T03:18:10.578Z,11.9
2018-05-03T03:19:11.926Z,11.9
2018-05-03T03:20:13.289Z,12
2018-05-03T03:21:14.596Z,11.9
2018-05-03T03:22:15.935Z,11.9
2018-05-03T03:23:17.330Z,12
2018-05-03T03:24:18.660Z,12
2018-05-03T03:25:19.999Z,11.9
2018-05-03T03:26:21.378Z,12
2018-05-03T03:27:22.779Z,11.9
2018-05-03T03:28:24.256Z,11.9
2018-05-03T03:29:25.601Z,11.9
2018-05-03T03:30:26.944Z,11.9
2018-05-03T03:31:28.327Z,11.9
2018-05-03T03:32:29.667Z,11.9
2018-05-03T03:33:31.067Z,11.8
2018-05-03T03:34:32.404Z,11.9
2018-05-03T03:35:33.723Z,11.8
2018-05-03T03:36:35.096Z,11.8
2018-05-03T03:37:36.427Z,11.7
2018-05-03T03:38:37.821Z,11.8
2018-05-03T03:39:39.159Z,11.7
2018-05-03T03:40:40.473Z,11.8
2018-05-03T03:41:41.880Z,11.9
2018-05-03T03:42:43.251Z,11.9
2018-05-03T03:43:44.654Z,11.8
2018-05-03T03:44:45.963Z,11.8
2018-05-03T03:45:47.322Z,11.8
2018-05-03T03:46:48.666Z,11.8
2018-05-03T03:47:49.965Z,11.8
2018-05-03T03:48:51.402Z,11.7
2018-05-03T03:49:52.806Z,11.7
2018-05-03T03:50:54.177Z,11.7
2018-05-03T03:51:55.504Z,11.7
2018-05-03T03:52:56.837Z,11.8
2018-05-03T03:53:58.847Z,11.6
2018-05-03T03:55:00.226Z,11.7
2018-05-03T03:56:01.693Z,11.7
2018-05-03T03:57:03.054Z,11.7
2018-05-03T03:58:04.415Z,11.8
2018-05-03T03:59:05.817Z,11.8
2018-05-03T04:00:07.145Z,11.6
2018-05-03T04:01:08.482Z,11.8
2018-05-03T04:02:09.842Z,11.7
2018-05-03T04:03:14.066Z,11.7
2018-05-03T04:04:15.495Z,11.9
2018-05-03T04:05:16.844Z,11.8
2018-05-03T04:06:18.170Z,11.8
2018-05-03T04:07:19.501Z,11.8
2018-05-03T04:08:20.851Z,11.7
2018-05-03T04:09:22.210Z,11.7
2018-05-03T04:10:23.845Z,11.7
2018-05-03T04:11:25.184Z,11.7
2018-05-03T04:12:29.083Z,11.7
2018-05-03T04:13:30.488Z,11.7
2018-05-03T04:14:32.038Z,11.6
2018-05-03T04:15:33.401Z,11.6
2018-05-03T04:16:34.745Z,11.7
2018-05-03T04:17:36.138Z,11.7
2018-05-03T04:18:37.479Z,11.8
2018-05-03T04:19:38.894Z,11.7
2018-05-03T04:20:40.236Z,11.8
2018-05-03T04:21:41.701Z,11.7
2018-05-03T04:22:43.068Z,11.7
2018-05-03T04:23:44.420Z,11.7
2018-05-03T04:24:45.816Z,11.7
2018-05-03T04:25:47.143Z,11.7
2018-05-03T04:26:48.482Z,11.7
2018-05-03T04:27:49.807Z,11.7
2018-05-03T04:28:51.159Z,11.7
2018-05-03T04:29:52.579Z,11.8
2018-05-03T04:30:53.948Z,11.7
2018-05-03T04:31:55.279Z,12.2
2018-05-03T04:32:56.612Z,12.9
2018-05-03T04:33:57.971Z,13.4
2018-05-03T04:34:59.405Z,13.8
2018-05-03T04:36:00.811Z,14
2018-05-03T04:37:02.199Z,14.1
2018-05-03T04:38:03.557Z,14.3
2018-05-03T04:39:04.934Z,14.3
2018-05-03T04:40:07.720Z,14.4
2018-05-03T04:41:09.069Z,14.4
2018-05-03T04:42:10.425Z,14.4
2018-05-03T04:43:11.940Z,14.6
2018-05-03T04:44:13.386Z,14.6
2018-05-03T04:45:15.332Z,14.7
2018-05-03T04:46:16.692Z,14.8
2018-05-03T04:47:18.080Z,14.8
2018-05-03T04:48:19.492Z,14.9
2018-05-03T04:49:20.835Z,14.9
2018-05-03T04:50:22.277Z,15
2018-05-03T04:51:23.622Z,15
2018-05-03T04:52:24.947Z,15.1
2018-05-03T04:53:26.347Z,15.1
2018-05-03T04:54:27.715Z,15.1
2018-05-03T04:55:29.174Z,15.2
2018-05-03T04:56:30.659Z,15.2
2018-05-03T04:57:41.645Z,15.2
2018-05-03T04:58:42.983Z,15.4
2018-05-03T04:59:44.308Z,15.4
2018-05-03T05:00:45.696Z,15.4
2018-05-03T05:01:47.219Z,15.4
2018-05-03T05:02:48.646Z,15.2
2018-05-03T05:03:49.986Z,15.5
2018-05-03T05:04:54.850Z,15.6
2018-05-03T05:06:01.079Z,15.6
2018-05-03T05:07:02.641Z,15.6
2018-05-03T05:08:05.127Z,15.7
2018-05-03T05:09:06.600Z,15.7
2018-05-03T05:10:15.407Z,15.8
2018-05-03T05:11:16.782Z,15.8
2018-05-03T05:12:18.123Z,15.8
2018-05-03T05:13:19.488Z,15.9
2018-05-03T05:14:20.868Z,16
2018-05-03T05:15:22.250Z,16
2018-05-03T05:16:23.667Z,15.9
2018-05-03T05:17:25.001Z,15.9
2018-05-03T05:18:26.391Z,15.9
2018-05-03T05:19:27.729Z,16
2018-05-03T05:20:29.418Z,16
2018-05-03T05:21:30.838Z,16
2018-05-03T05:22:32.280Z,15.9
2018-05-03T05:23:33.730Z,16
2018-05-03T05:24:35.221Z,16.1
2018-05-03T05:25:36.619Z,16.1
2018-05-03T05:26:38.103Z,16.1
2018-05-03T05:27:39.588Z,16.2
2018-05-03T05:28:45.923Z,16.2
2018-05-03T05:29:47.285Z,16.3
2018-05-03T05:30:48.835Z,16.3
2018-05-03T05:31:50.209Z,16.4
2018-05-03T05:32:51.672Z,16.4
2018-05-03T05:33:53.059Z,16.4
2018-05-03T05:34:54.388Z,16.4
2018-05-03T05:35:55.750Z,16.5
2018-05-03T05:36:57.167Z,16.5
2018-05-03T05:38:01.533Z,16.5
2018-05-03T05:39:02.989Z,16.6
2018-05-03T05:40:04.378Z,16.5
2018-05-03T05:41:05.834Z,16.5
2018-05-03T05:42:08.408Z,16.5
2018-05-03T05:43:09.836Z,16.6
2018-05-03T05:44:11.216Z,16.6
2018-05-03T05:45:12.765Z,16.7
2018-05-03T05:46:14.232Z,16.7
2018-05-03T05:47:15.851Z,16.7
2018-05-03T05:48:17.223Z,16.7
2018-05-03T05:49:18.590Z,16.7
2018-05-03T05:50:19.910Z,16.8
2018-05-03T05:51:21.364Z,16.8
2018-05-03T05:52:22.715Z,16.7
2018-05-03T05:53:24.102Z,16.8
2018-05-03T05:54:25.428Z,16.8
2018-05-03T05:55:26.778Z,16.9
2018-05-03T05:56:28.125Z,16.9
2018-05-03T05:57:29.777Z,16.8
2018-05-03T05:58:32.977Z,17
2018-05-03T05:59:34.434Z,17
2018-05-03T06:00:35.995Z,17.1
2018-05-03T06:01:37.382Z,17
2018-05-03T06:02:38.775Z,17
2018-05-03T06:03:40.229Z,17.1
2018-05-03T06:04:41.963Z,17.1
2018-05-03T06:05:43.325Z,17.1
2018-05-03T06:06:44.680Z,17.2
2018-05-03T06:07:46.099Z,17.2
2018-05-03T06:08:47.498Z,17.2
2018-05-03T06:09:48.841Z,17.2
2018-05-03T06:10:50.264Z,17.4
2018-05-03T06:11:51.652Z,17.5
2018-05-03T06:12:53.103Z,17.6
2018-05-03T06:13:54.452Z,17.8
2018-05-03T06:14:55.863Z,17.9
2018-05-03T06:15:57.215Z,18
2018-05-03T06:16:58.539Z,18
2018-05-03T06:17:59.969Z,18.1
2018-05-03T06:19:01.351Z,18.1
2018-05-03T06:20:02.742Z,18.1
2018-05-03T06:21:04.131Z,18.2
2018-05-03T06:22:05.626Z,18.2
2018-05-03T06:23:07.098Z,18.3
2018-05-03T06:24:08.815Z,18.4
2018-05-03T06:25:10.174Z,18.4
2018-05-03T06:26:11.576Z,18.5
2018-05-03T06:27:13.056Z,18.5
2018-05-03T06:28:14.445Z,18.4
2018-05-03T06:29:15.785Z,18.6
2018-05-03T06:30:17.227Z,18.7
2018-05-03T06:31:18.684Z,18.8
2018-05-03T06:32:20.024Z,18.9
2018-05-03T06:33:21.504Z,18.9
2018-05-03T06:34:22.915Z,19.1
2018-05-03T06:35:24.255Z,19.2
2018-05-03T06:36:25.619Z,19.2
2018-05-03T06:37:26.970Z,19.4
2018-05-03T06:38:28.440Z,19.5
2018-05-03T06:39:29.855Z,19.4
2018-05-03T06:40:31.284Z,19.6
2018-05-03T06:41:34.560Z,19.7
2018-05-03T06:42:35.956Z,19.8
2018-05-03T06:43:37.378Z,19.8
2018-05-03T06:44:38.819Z,19.9
2018-05-03T06:45:40.212Z,20
2018-05-03T06:46:41.615Z,20
2018-05-03T06:47:42.980Z,20
2018-05-03T06:48:44.431Z,20
2018-05-03T06:49:45.826Z,20
2018-05-03T06:50:47.203Z,20
2018-05-03T06:51:48.523Z,20.3
2018-05-03T06:52:49.855Z,20.4
2018-05-03T06:53:51.267Z,20.5
2018-05-03T06:54:52.693Z,20.6
2018-05-03T06:55:54.134Z,20.7
2018-05-03T06:56:58.615Z,20.7
2018-05-03T06:58:00.012Z,20.9
2018-05-03T06:59:01.486Z,21
2018-05-03T07:00:07.597Z,21
2018-05-03T07:01:09.054Z,21
2018-05-03T07:02:10.449Z,21.1
2018-05-03T07:03:12.087Z,21.2
2018-05-03T07:04:13.633Z,21.2
2018-05-03T07:05:14.883Z,21.2
2018-05-03T07:06:16.256Z,21.2
2018-05-03T07:07:17.631Z,21.3
2018-05-03T07:08:19.015Z,21.3
2018-05-03T07:09:20.426Z,21.4
2018-05-03T07:10:21.823Z,21.5
2018-05-03T07:11:23.280Z,21.6
2018-05-03T07:12:24.627Z,21.6
2018-05-03T07:13:25.970Z,21.6
2018-05-03T07:14:27.421Z,21.5
2018-05-03T07:15:30.426Z,21.6
2018-05-03T07:16:31.793Z,21.6
2018-05-03T07:17:33.305Z,21.6
2018-05-03T07:18:34.700Z,21.6
2018-05-03T07:19:36.114Z,21.5
2018-05-03T07:20:37.477Z,21.9
2018-05-03T07:21:38.876Z,21.9
2018-05-03T07:22:40.251Z,22
2018-05-03T07:23:41.690Z,22
2018-05-03T07:24:43.218Z,21.9
2018-05-03T07:25:44.590Z,22
2018-05-03T07:26:46.123Z,22
2018-05-03T07:27:47.643Z,22.1
2018-05-03T07:28:49.057Z,22
2018-05-03T07:29:50.601Z,22.1
2018-05-03T07:30:52.290Z,22.1
2018-05-03T07:31:53.854Z,22.1
2018-05-03T07:32:55.227Z,22.1
2018-05-03T07:33:56.613Z,22.2
2018-05-03T07:34:58.034Z,22.2
2018-05-03T07:35:59.459Z,22.2
2018-05-03T07:37:04.684Z,22.3
2018-05-03T07:38:08.854Z,22.3
2018-05-03T07:39:10.212Z,22.3
2018-05-03T07:40:11.650Z,22.3
2018-05-03T07:41:13.160Z,22.3
2018-05-03T07:42:14.398Z,22.3
2018-05-03T07:43:15.781Z,22.3
2018-05-03T07:44:17.160Z,22.3
2018-05-03T07:45:18.576Z,22.3
2018-05-03T07:46:19.954Z,22.4
2018-05-03T07:47:21.400Z,22.4
2018-05-03T07:48:22.952Z,22.4
2018-05-03T07:49:24.279Z,22.4
2018-05-03T07:50:25.739Z,22.5
2018-05-03T07:51:27.079Z,22.5
2018-05-03T07:52:28.488Z,22.6
2018-05-03T07:53:29.923Z,22.7
2018-05-03T07:54:31.314Z,22.9
2018-05-03T07:55:32.918Z,22.8
2018-05-03T07:56:34.214Z,22.7
2018-05-03T07:57:35.564Z,22.7
2018-05-03T07:58:37.044Z,22.7
2018-05-03T07:59:38.441Z,22.7
2018-05-03T08:00:39.900Z,22.6
2018-05-03T08:01:41.291Z,22.7
2018-05-03T08:02:42.820Z,22.7
2018-05-03T08:03:46.799Z,22.7
2018-05-03T08:04:48.212Z,22.7
2018-05-03T08:05:49.736Z,22.6
2018-05-03T08:06:51.116Z,22.7
2018-05-03T08:07:52.583Z,22.7
2018-05-03T08:08:53.956Z,22.6
2018-05-03T08:09:55.300Z,22.7
2018-05-03T08:10:56.914Z,22.7
2018-05-03T08:11:58.193Z,22.7
2018-05-03T08:12:59.573Z,22.6
2018-05-03T08:14:00.910Z,22.7
2018-05-03T08:15:02.433Z,22.7
2018-05-03T08:16:03.888Z,22.8
2018-05-03T08:17:05.456Z,22.7
2018-05-03T08:18:07.392Z,22.8
2018-05-03T08:19:08.801Z,22.9
2018-05-03T08:20:10.247Z,22.9
2018-05-03T08:21:11.974Z,23
2018-05-03T08:22:13.337Z,23
2018-05-03T08:23:15.880Z,23
2018-05-03T08:24:17.249Z,23
2018-05-03T08:25:18.590Z,23.1
2018-05-03T08:26:20.010Z,23.2
2018-05-03T08:27:21.394Z,23.1
2018-05-03T08:28:22.838Z,23.1
2018-05-03T08:29:24.266Z,23
2018-05-03T08:30:27.850Z,23
2018-05-03T08:31:29.418Z,23
2018-05-03T08:32:32.481Z,22.9
2018-05-03T08:33:33.872Z,23
2018-05-03T08:34:36.903Z,23
2018-05-03T08:35:38.322Z,22.9
2018-05-03T08:36:39.724Z,23
2018-05-03T08:37:41.094Z,23
2018-05-03T08:38:43.719Z,22.9
2018-05-03T08:39:45.141Z,22.9
2018-05-03T08:40:46.511Z,23
2018-05-03T08:41:47.939Z,23
2018-05-03T08:42:49.302Z,23
2018-05-03T08:43:50.648Z,23
2018-05-03T08:44:52.041Z,22.9
2018-05-03T08:45:53.447Z,23
2018-05-03T08:46:54.874Z,23
2018-05-03T08:47:57.544Z,22.9
2018-05-03T08:48:59.023Z,22.9
2018-05-03T08:50:00.396Z,23
2018-05-03T08:51:01.825Z,23
2018-05-03T08:52:05.613Z,23.1
2018-05-03T08:53:07.121Z,23.2
2018-05-03T08:54:08.475Z,23.3
2018-05-03T08:55:10.021Z,23.3
2018-05-03T08:56:11.577Z,23.2
2018-05-03T08:57:13.275Z,23.3
2018-05-03T08:58:14.610Z,23.2
2018-05-03T08:59:17.163Z,23.2
2018-05-03T09:00:18.535Z,23.2
2018-05-03T09:01:20.324Z,23.2
2018-05-03T09:02:21.795Z,23.2
2018-05-03T09:03:23.392Z,23.2
2018-05-03T09:04:24.926Z,23.3
2018-05-03T09:05:26.449Z,23.3
2018-05-03T09:06:28.027Z,23.2
2018-05-03T09:07:29.530Z,23.2
2018-05-03T09:08:44.916Z,23.2
2018-05-03T09:09:46.318Z,23.2
2018-05-03T09:10:47.733Z,23.2
2018-05-03T09:11:49.086Z,23.2
2018-05-03T09:12:50.478Z,23.2
2018-05-03T09:13:54.082Z,23.2
2018-05-03T09:14:55.536Z,23.2
2018-05-03T09:16:07.693Z,23.3
2018-05-03T09:17:12.273Z,23.2
2018-05-03T09:18:14.315Z,23.3
2018-05-03T09:19:18.048Z,23.3
2018-05-03T09:20:19.769Z,23.3
2018-05-03T09:21:21.770Z,23.3
2018-05-03T09:22:23.444Z,23.3
2018-05-03T09:23:26.180Z,23.3
2018-05-03T09:24:30.891Z,23.3
2018-05-03T09:25:33.158Z,23.3
2018-05-03T09:26:34.836Z,23.3
2018-05-03T09:27:36.294Z,23.3
2018-05-03T09:28:39.105Z,23.3
2018-05-03T09:29:41.030Z,23.3
2018-05-03T09:30:42.496Z,23.3
2018-05-03T09:31:43.896Z,23.3
2018-05-03T09:32:46.075Z,23.3
2018-05-03T09:33:50.470Z,23.3
2018-05-03T09:34:54.160Z,23.3
2018-05-03T09:35:55.545Z,23.3
2018-05-03T09:36:58.847Z,23.3
2018-05-03T09:38:00.345Z,23.4
2018-05-03T09:39:01.812Z,23.4
2018-05-03T09:40:03.728Z,23.4
2018-05-03T09:41:05.272Z,23.4
2018-05-03T09:42:06.842Z,23.4
2018-05-03T09:43:08.239Z,23.4
2018-05-03T09:44:09.976Z,23.4
2018-05-03T09:45:11.527Z,23.4
2018-05-03T09:46:12.871Z,23.4
2018-05-03T09:47:14.268Z,23.4
2018-05-03T09:48:15.877Z,23.4
2018-05-03T09:49:17.457Z,23.4
2018-05-03T09:50:18.942Z,23.4
2018-05-03T09:51:20.648Z,23.4
2018-05-03T09:52:22.469Z,23.4
2018-05-03T09:53:27.067Z,23.5
2018-05-03T09:54:29.081Z,23.5
2018-05-03T09:55:30.639Z,23.4
2018-05-03T09:56:32.250Z,23.4
2018-05-03T09:57:35.224Z,23.4
2018-05-03T09:58:36.927Z,23.3
2018-05-03T09:59:39.607Z,23.3
2018-05-03T10:00:41.593Z,23.3
2018-05-03T10:01:43.284Z,23.3
2018-05-03T10:02:45.286Z,23.3
2018-05-03T10:03:49.462Z,23.3
2018-05-03T10:04:55.738Z,23.3
2018-05-03T10:05:59.767Z,23.2
2018-05-03T10:07:01.843Z,23.3
2018-05-03T10:08:12.900Z,23.3
2018-05-03T10:09:35.674Z,23.2
2018-05-03T10:10:40.433Z,23.3
2018-05-03T10:11:45.511Z,23.2
2018-05-03T10:12:55.932Z,23.3
2018-05-03T10:15:16.473Z,23.3
2018-05-03T10:16:18.405Z,23.3
2018-05-03T10:17:21.830Z,23.3
2018-05-03T10:18:24.600Z,23.3
2018-05-03T10:19:26.946Z,23.3
2018-05-03T10:20:31.689Z,23.3
2018-05-03T10:21:33.908Z,23.3
2018-05-03T10:22:35.515Z,23.3
2018-05-03T10:23:39.714Z,23.3
2018-05-03T10:24:42.593Z,23.3
2018-05-03T10:25:44.196Z,23.3
2018-05-03T10:26:45.975Z,23.3
2018-05-03T10:27:48.653Z,23.3
2018-05-03T10:28:51.236Z,23.3
2018-05-03T10:29:54.117Z,23.3
2018-05-03T10:30:55.820Z,23.3
2018-05-03T10:31:57.343Z,23.3
2018-05-03T10:33:00.180Z,23.3
2018-05-03T10:34:03.512Z,23.3
2018-05-03T10:35:11.790Z,23.3
2018-05-03T10:36:33.279Z,23.3
2018-05-03T10:37:35.460Z,23.3
2018-05-03T10:38:36.997Z,23.3
2018-05-03T10:39:38.630Z,23.3
2018-05-03T10:40:41.809Z,23.3
2018-05-03T10:41:44.852Z,23.3
2018-05-03T10:42:49.338Z,23.3
2018-05-03T10:43:53.004Z,23.3
2018-05-03T10:44:54.944Z,23.3
2018-05-03T10:45:59.306Z,23.3
2018-05-03T10:47:14.924Z,23.3
2018-05-03T10:48:21.928Z,23.3
2018-05-03T10:49:26.108Z,23.3
2018-05-03T10:50:28.132Z,23.3
2018-05-03T10:51:38.001Z,23.3
2018-05-03T10:52:40.685Z,23.3
2018-05-03T10:53:42.392Z,23.3
2018-05-03T10:54:46.553Z,23.3
2018-05-03T10:55:49.436Z,23.2
2018-05-03T10:56:51.167Z,23.3
2018-05-03T10:57:54.200Z,23.3
2018-05-03T10:58:55.991Z,23.3
2018-05-03T11:00:08.965Z,23.3
2018-05-03T11:01:14.728Z,23.3
2018-05-03T11:02:24.582Z,23.3
2018-05-03T11:03:26.852Z,23.3
2018-05-03T11:04:31.350Z,23.3
2018-05-03T11:05:36.218Z,23.3
2018-05-03T11:06:37.832Z,23.3
2018-05-03T11:07:39.427Z,23.3
2018-05-03T11:08:41.719Z,23.3
2018-05-03T11:09:46.660Z,23.3
2018-05-03T11:10:49.948Z,23.3
2018-05-03T11:12:07.077Z,23.3
2018-05-03T11:13:13.484Z,23.3
2018-05-03T11:14:20.449Z,23.3
2018-05-03T11:15:38.688Z,23.2
2018-05-03T11:16:44.130Z,23.3
2018-05-03T11:19:10.153Z,23.3
2018-05-03T11:20:16.116Z,23.3
2018-05-03T11:21:22.955Z,23.2
2018-05-03T11:22:33.786Z,23.3
2018-05-03T11:23:35.723Z,23.4
2018-05-03T11:24:39.716Z,23.4
2018-05-03T11:25:42.803Z,23.4
2018-05-03T11:26:45.645Z,23.4
2018-05-03T11:27:52.790Z,23.4
2018-05-03T11:28:57.125Z,23.4
2018-05-03T11:29:59.479Z,23.4
2018-05-03T11:31:09.582Z,23.4
2018-05-03T11:32:14.767Z,23.4
2018-05-03T11:33:18.926Z,23.4
2018-05-03T11:34:21.627Z,23.3
2018-05-03T11:35:24.226Z,23.3
2018-05-03T11:36:26.474Z,23.4
2018-05-03T11:37:28.142Z,23.4
2018-05-03T11:38:30.497Z,23.4
2018-05-03T11:39:33.011Z,23.4
2018-05-03T11:40:35.677Z,23.4
2018-05-03T11:41:37.279Z,23.4
2018-05-03T11:42:39.916Z,23.5
2018-05-03T11:43:52.246Z,23.5
2018-05-03T11:44:54.905Z,23.5
2018-05-03T11:46:04.163Z,23.5
2018-05-03T11:47:10.408Z,23.5
2018-05-03T11:48:17.515Z,23.5
2018-05-03T11:49:19.081Z,23.5
2018-05-03T11:50:22.358Z,23.5
2018-05-03T11:51:24.822Z,23.5
2018-05-03T11:52:29.448Z,23.5
2018-05-03T11:53:31.387Z,23.5
2018-05-03T11:54:33.456Z,23.4
2018-05-03T11:55:38.182Z,23.5
2018-05-03T11:56:40.025Z,23.3
2018-05-03T11:57:41.485Z,23.5
2018-05-03T11:58:43.233Z,23.5
2018-05-03T11:59:45.147Z,23.6
2018-05-03T12:00:48.401Z,23.5
2018-05-03T12:01:50.157Z,23.6
2018-05-03T12:02:52.011Z,23.6
2018-05-03T12:03:53.676Z,23.6
2018-05-03T12:04:55.183Z,23.6
2018-05-03T12:05:56.848Z,23.6
2018-05-03T12:06:58.360Z,23.6
2018-05-03T12:07:59.934Z,23.6
2018-05-03T12:09:01.562Z,23.6
2018-05-03T12:10:04.146Z,23.6
2018-05-03T12:11:07.496Z,23.7
2018-05-03T12:12:09.680Z,23.7
2018-05-03T12:13:12.316Z,23.7
2018-05-03T12:14:14.037Z,23.7
2018-05-03T12:15:15.407Z,23.7
2018-05-03T12:16:16.901Z,23.7
2018-05-03T12:17:21.237Z,23.6
2018-05-03T12:18:23.038Z,23.7
2018-05-03T12:19:25.143Z,23.8
2018-05-03T12:20:26.552Z,23.8
2018-05-03T12:21:28.137Z,23.7
2018-05-03T12:22:29.517Z,23.8
2018-05-03T12:23:30.999Z,23.8
2018-05-03T12:24:32.513Z,23.8
2018-05-03T12:25:34.062Z,23.8
2018-05-03T12:26:35.692Z,23.9
2018-05-03T12:27:37.248Z,23.8
2018-05-03T12:28:38.704Z,23.8
2018-05-03T12:29:40.231Z,23.8
2018-05-03T12:30:41.624Z,23.8
2018-05-03T12:31:43.189Z,23.9
2018-05-03T12:32:44.850Z,23.9
2018-05-03T12:33:46.681Z,23.9
2018-05-03T12:34:48.477Z,23.9
2018-05-03T12:35:52.695Z,23.7
2018-05-03T12:36:54.239Z,23.9
2018-05-03T12:37:55.712Z,23.9
2018-05-03T12:38:57.161Z,23.9
2018-05-03T12:39:58.579Z,23.9
2018-05-03T12:40:59.956Z,23.9
2018-05-03T12:42:01.597Z,24
2018-05-03T12:43:03.361Z,24
2018-05-03T12:44:04.914Z,23.9
2018-05-03T12:45:06.678Z,23.9
2018-05-03T12:46:08.122Z,23.9
2018-05-03T12:47:10.122Z,23.9
2018-05-03T12:48:11.952Z,24
2018-05-03T12:49:13.995Z,24
2018-05-03T12:50:15.765Z,23.9
2018-05-03T12:51:17.327Z,24
2018-05-03T12:52:18.800Z,24
2018-05-03T12:53:20.235Z,24
2018-05-03T12:54:21.625Z,24
2018-05-03T12:55:23.037Z,24
2018-05-03T12:56:24.573Z,24
2018-05-03T12:57:26.119Z,24
2018-05-03T12:58:27.520Z,24
2018-05-03T12:59:29.040Z,24
2018-05-03T13:01:40.386Z,24
2018-05-03T13:02:41.749Z,24
2018-05-03T13:03:44.881Z,24
2018-05-03T13:04:46.429Z,24
2018-05-03T13:05:48.108Z,23.9
2018-05-03T13:06:49.577Z,24
2018-05-03T13:07:51.021Z,24
2018-05-03T13:08:52.432Z,24.1
2018-05-03T13:09:53.819Z,24.1
2018-05-03T13:10:55.367Z,24.2
2018-05-03T13:11:56.756Z,24.1
2018-05-03T13:13:00.710Z,24.2
2018-05-03T13:14:02.679Z,24.2
2018-05-03T13:15:04.115Z,24.3
2018-05-03T13:16:05.719Z,24.3
2018-05-03T13:17:07.137Z,24.3
2018-05-03T13:18:11.012Z,24.3
2018-05-03T13:19:12.488Z,24.2
2018-05-03T13:20:14.310Z,24.1
2018-05-03T13:21:20.781Z,24.1
2018-05-03T13:22:22.181Z,24
2018-05-03T13:23:23.552Z,24.1
2018-05-03T13:24:24.999Z,24
2018-05-03T13:25:26.502Z,24.1
2018-05-03T13:26:28.111Z,24.1
2018-05-03T13:27:29.774Z,24.1
2018-05-03T13:28:31.325Z,24.1
2018-05-03T13:29:32.676Z,24.1
2018-05-03T13:30:40.252Z,24.1
2018-05-03T13:31:47.341Z,24.1
2018-05-03T13:32:49.003Z,24
2018-05-03T13:33:50.481Z,24.1
2018-05-03T13:34:51.924Z,24.1
2018-05-03T13:35:53.358Z,24.1
2018-05-03T13:36:54.964Z,24.1
2018-05-03T13:37:56.490Z,24.1
2018-05-03T13:39:01.386Z,24.1
2018-05-03T13:40:02.910Z,24.1
2018-05-03T13:41:04.345Z,24.2
2018-05-03T13:42:06.108Z,24.1
2018-05-03T13:43:09.740Z,24.1
2018-05-03T13:44:11.385Z,24.1
2018-05-03T13:45:12.877Z,24.1
2018-05-03T13:46:14.271Z,24.1
2018-05-03T13:47:15.691Z,24.1
2018-05-03T13:48:19.751Z,24.1
2018-05-03T13:49:21.478Z,24
2018-05-03T13:50:22.946Z,24.1
2018-05-03T13:51:24.429Z,24.1
2018-05-03T13:52:26.083Z,24.1
2018-05-03T13:53:27.518Z,24.1
2018-05-03T13:54:31.959Z,24
2018-05-03T13:55:35.116Z,24.1
2018-05-03T13:56:36.716Z,24.1
2018-05-03T13:58:46.217Z,24.1
2018-05-03T13:59:47.596Z,24.1